Time;durP1;ratioP1;P1;durP2;ratioP2;P2;SDS_P1;SDS_P2;PMS_P1;PMS_P2;Temp;Humidity;BMP_temperature;BMP_pressure;BME280_temperature;BME280_humidity;BME280_pressure;Samples;Min_cycle;Max_cycle;Signal;HPM_P1;HPM_P2
2023/09/08 00:01:59;;;;;;;12.10;6.57;;;19.40;97.70;;;;;;4983481;28;20062;-67
2023/09/08 00:04:25;;;;;;;10.77;6.53;;;19.40;97.80;;;;;;4927871;28;20058;-67
2023/09/08 00:06:51;;;;;;;11.88;6.57;;;19.40;97.90;;;;;;5001999;28;20084;-67
2023/09/08 00:09:17;;;;;;;13.05;6.78;;;19.30;98.00;;;;;;4955579;28;20058;-67
2023/09/08 00:11:43;;;;;;;11.50;6.60;;;19.30;98.00;;;;;;5004028;28;20573;-67
2023/09/08 00:14:09;;;;;;;13.38;7.00;;;19.20;98.20;;;;;;4971242;28;20041;-67
2023/09/08 00:16:35;;;;;;;12.82;6.60;;;19.20;98.40;;;;;;5004365;28;20045;-68
2023/09/08 00:19:01;;;;;;;13.25;6.35;;;19.10;98.40;;;;;;4957490;28;20088;-68
2023/09/08 00:21:27;;;;;;;14.13;6.80;;;19.10;98.50;;;;;;4996266;28;20061;-68
2023/09/08 00:23:53;;;;;;;15.18;6.32;;;19.10;98.70;;;;;;4972816;28;20096;-69
2023/09/08 00:26:20;;;;;;;12.77;7.07;;;19.00;98.90;;;;;;5004923;28;20506;-68
2023/09/08 00:28:47;;;;;;;15.82;6.97;;;19.00;99.00;;;;;;4969479;28;20060;-67
2023/09/08 00:31:14;;;;;;;10.77;7.20;;;19.00;99.10;;;;;;5008742;28;20503;-68
2023/09/08 00:33:41;;;;;;;11.30;7.35;;;18.90;99.10;;;;;;4961910;28;20049;-67
2023/09/08 00:36:07;;;;;;;11.18;6.70;;;18.90;99.20;;;;;;5004603;28;20066;-68
2023/09/08 00:38:33;;;;;;;11.82;6.57;;;18.80;99.30;;;;;;4957625;28;20050;-66
2023/09/08 00:41:00;;;;;;;12.75;7.35;;;18.70;99.40;;;;;;4999949;28;20065;-67
2023/09/08 00:43:27;;;;;;;10.88;7.05;;;18.70;99.60;;;;;;4962817;28;20061;-68
2023/09/08 00:45:55;;;;;;;12.50;7.03;;;18.70;99.60;;;;;;4988381;28;20415;-68
2023/09/08 00:48:21;;;;;;;12.32;7.15;;;18.70;99.70;;;;;;4936065;28;20102;-68
2023/09/08 00:50:47;;;;;;;9.93;6.57;;;18.60;99.80;;;;;;4978199;28;20054;-67
2023/09/08 00:53:13;;;;;;;12.27;7.60;;;18.50;99.80;;;;;;4924747;28;280061;-68
2023/09/08 00:55:41;;;;;;;10.85;6.40;;;18.50;99.90;;;;;;4995501;28;20061;-67
2023/09/08 00:58:07;;;;;;;11.75;7.28;;;18.50;99.90;;;;;;4958381;28;20065;-67
2023/09/08 01:00:33;;;;;;;12.18;7.78;;;18.40;99.90;;;;;;4997758;28;20054;-68
2023/09/08 01:03:00;;;;;;;14.15;7.60;;;18.40;99.90;;;;;;4949946;28;20422;-67
2023/09/08 01:05:26;;;;;;;12.57;7.47;;;18.30;99.90;;;;;;4991778;28;20054;-66
2023/09/08 01:07:53;;;;;;;14.98;7.57;;;18.30;99.90;;;;;;4974505;28;20050;-66
2023/09/08 01:10:19;;;;;;;14.55;7.75;;;18.20;99.90;;;;;;5000785;28;20052;-68
2023/09/08 01:12:45;;;;;;;13.55;7.47;;;18.20;99.90;;;;;;4966638;28;20066;-68
2023/09/08 01:15:12;;;;;;;11.55;7.70;;;18.10;99.90;;;;;;4992131;28;20054;-67
2023/09/08 01:17:39;;;;;;;12.07;7.28;;;18.10;99.90;;;;;;4949518;28;20050;-66
2023/09/08 01:20:21;;;;;;;13.18;7.90;;;18.10;99.90;;;;;;4997972;28;20330;-66
2023/09/08 01:23:03;;;;;;;12.48;6.95;;;18.00;99.90;;;;;;4948796;28;20044;-67
2023/09/08 01:25:31;;;;;;;14.13;7.65;;;18.00;99.90;;;;;;4996935;28;20066;-68
2023/09/08 01:28:01;;;;;;;11.70;7.43;;;17.90;99.90;;;;;;4945415;28;20070;-68
2023/09/08 01:30:32;;;;;;;17.23;7.95;;;17.90;99.90;;;;;;4970503;28;20062;-67
2023/09/08 01:32:59;;;;;;;14.13;7.70;;;17.80;99.90;;;;;;4949553;28;20051;-67
2023/09/08 01:35:25;;;;;;;10.60;7.10;;;17.80;99.90;;;;;;4991471;28;20046;-66
2023/09/08 01:37:51;;;;;;;14.73;8.30;;;17.80;99.90;;;;;;4972292;28;20050;-67
2023/09/08 01:40:18;;;;;;;14.45;7.60;;;17.80;99.90;;;;;;5013495;28;20752;-68
2023/09/08 01:42:45;;;;;;;12.15;7.80;;;17.70;99.90;;;;;;4967989;28;20045;-66
2023/09/08 01:45:11;;;;;;;13.43;7.82;;;17.70;99.90;;;;;;4999415;28;20053;-67
2023/09/08 01:47:37;;;;;;;15.07;8.27;;;17.70;99.90;;;;;;4945300;28;20069;-66
2023/09/08 01:50:04;;;;;;;12.85;8.13;;;17.70;99.90;;;;;;4981971;28;20496;-67
2023/09/08 01:52:30;;;;;;;11.70;8.45;;;17.60;99.90;;;;;;4956326;28;20050;-69
2023/09/08 01:54:56;;;;;;;14.85;8.15;;;17.60;99.90;;;;;;4967736;28;125318;-67
2023/09/08 01:57:22;;;;;;;14.55;7.75;;;17.60;99.90;;;;;;4990229;28;20109;-66
2023/09/08 01:59:48;;;;;;;13.18;7.90;;;17.60;99.90;;;;;;4936552;28;20061;-67
2023/09/08 02:02:14;;;;;;;12.13;7.65;;;17.60;99.90;;;;;;4986719;28;20057;-68
2023/09/08 02:04:41;;;;;;;15.10;8.18;;;17.50;99.90;;;;;;4956659;28;20061;-67
2023/09/08 02:07:07;;;;;;;16.25;8.60;;;17.50;99.90;;;;;;5004428;28;20048;-66
2023/09/08 02:09:38;;;;;;;14.13;8.80;;;17.50;99.90;;;;;;4963041;28;20065;-67
2023/09/08 02:12:05;;;;;;;14.40;8.00;;;17.50;99.90;;;;;;4982415;28;20046;-67
2023/09/08 02:14:31;;;;;;;13.07;8.40;;;17.50;99.90;;;;;;4943648;28;20058;-67
2023/09/08 02:16:57;;;;;;;14.65;8.68;;;17.40;99.90;;;;;;4981756;28;20050;-67
2023/09/08 02:19:23;;;;;;;13.75;8.23;;;17.40;99.90;;;;;;4956781;28;20512;-66
2023/09/08 02:21:49;;;;;;;11.27;7.78;;;17.40;99.90;;;;;;4984571;28;20058;-66
2023/09/08 02:24:15;;;;;;;13.07;8.48;;;17.30;99.90;;;;;;4945542;28;20081;-67
2023/09/08 02:26:42;;;;;;;15.25;9.60;;;17.30;99.90;;;;;;4980670;28;20046;-67
2023/09/08 02:29:08;;;;;;;13.55;9.13;;;17.30;99.90;;;;;;4939402;28;20063;-68
2023/09/08 02:31:34;;;;;;;15.10;8.95;;;17.30;99.90;;;;;;4998727;28;20049;-66
2023/09/08 02:34:00;;;;;;;13.35;9.35;;;17.30;99.90;;;;;;4971292;28;20052;-67
2023/09/08 02:36:26;;;;;;;13.98;8.93;;;17.30;99.90;;;;;;5007771;28;20073;-66
2023/09/08 02:38:56;;;;;;;13.52;9.32;;;17.30;99.90;;;;;;4976949;28;20087;-66
2023/09/08 02:41:22;;;;;;;14.68;8.45;;;17.30;99.90;;;;;;5002148;28;20062;-67
2023/09/08 02:43:49;;;;;;;13.07;8.77;;;17.30;99.90;;;;;;4957477;28;20101;-67
2023/09/08 02:46:15;;;;;;;13.77;9.13;;;17.30;99.90;;;;;;5000060;28;20385;-67
2023/09/08 02:48:42;;;;;;;15.45;9.52;;;17.30;99.90;;;;;;4953880;28;20057;-68
2023/09/08 02:51:08;;;;;;;15.02;8.68;;;17.30;99.90;;;;;;4989381;28;20059;-66
2023/09/08 02:53:34;;;;;;;15.07;9.48;;;17.20;99.90;;;;;;4925275;28;242892;-65
2023/09/08 02:56:00;;;;;;;16.58;9.10;;;17.30;99.90;;;;;;4976420;28;20050;-66
2023/09/08 02:58:27;;;;;;;14.55;9.48;;;17.20;99.90;;;;;;4940971;28;22087;-66
2023/09/08 03:00:53;;;;;;;15.15;9.30;;;17.30;99.90;;;;;;4982468;28;20064;-67
2023/09/08 03:03:20;;;;;;;13.02;9.32;;;17.30;99.90;;;;;;4950305;28;20058;-67
2023/09/08 03:05:46;;;;;;;15.82;9.40;;;17.30;99.90;;;;;;4988039;28;20419;-67
2023/09/08 03:08:12;;;;;;;14.70;9.20;;;17.30;99.90;;;;;;4950923;28;20056;-67
2023/09/08 03:10:38;;;;;;;17.35;9.23;;;17.30;99.90;;;;;;4993774;28;20061;-66
2023/09/08 03:13:04;;;;;;;14.02;8.90;;;17.30;99.90;;;;;;4944143;28;20076;-67
2023/09/08 03:15:31;;;;;;;12.43;9.23;;;17.30;99.90;;;;;;4988498;28;20054;-67
2023/09/08 03:18:00;;;;;;;13.43;9.27;;;17.30;99.90;;;;;;4937497;28;20054;-68
2023/09/08 03:20:28;;;;;;;15.48;9.27;;;17.30;99.90;;;;;;4979640;28;20058;-67
2023/09/08 03:22:54;;;;;;;14.40;9.05;;;17.20;99.90;;;;;;4940386;28;20051;-67
2023/09/08 03:25:21;;;;;;;14.80;9.68;;;17.20;99.90;;;;;;4979236;28;20039;-66
2023/09/08 03:27:47;;;;;;;14.68;9.45;;;17.20;99.90;;;;;;4938439;28;20047;-67
2023/09/08 03:30:13;;;;;;;14.40;9.23;;;17.20;99.90;;;;;;4971956;28;20454;-68
2023/09/08 03:32:39;;;;;;;16.20;9.60;;;17.10;99.90;;;;;;4944164;28;20050;-67
2023/09/08 03:35:07;;;;;;;15.13;10.32;;;17.10;99.90;;;;;;4990568;28;20049;-67
2023/09/08 03:37:36;;;;;;;15.88;9.40;;;17.00;99.90;;;;;;4953272;28;20046;-67
2023/09/08 03:40:05;;;;;;;15.73;9.30;;;17.00;99.90;;;;;;4975649;28;20054;-67
2023/09/08 03:42:31;;;;;;;14.77;9.88;;;17.00;99.90;;;;;;4963443;28;20073;-68
2023/09/08 03:44:57;;;;;;;13.90;9.02;;;17.00;99.90;;;;;;5008596;28;20582;-67
2023/09/08 03:47:23;;;;;;;11.55;8.10;;;17.00;99.90;;;;;;5004612;28;20480;-67
2023/09/08 03:49:50;;;;;;;14.05;9.55;;;16.90;99.90;;;;;;4986941;28;20049;-67
2023/09/08 03:52:16;;;;;;;14.23;9.68;;;16.90;99.90;;;;;;4999964;28;20069;-68
2023/09/08 03:54:42;;;;;;;16.27;9.60;;;16.90;99.90;;;;;;4959184;28;105994;-67
2023/09/08 03:57:08;;;;;;;14.75;9.90;;;16.80;99.90;;;;;;5001044;28;20054;-68
2023/09/08 03:59:34;;;;;;;14.02;9.73;;;16.80;99.90;;;;;;4964211;28;20050;-67
2023/09/08 04:02:01;;;;;;;13.00;9.77;;;16.80;99.90;;;;;;5004762;28;20475;-67
2023/09/08 04:04:27;;;;;;;16.38;10.60;;;16.80;99.90;;;;;;4964613;28;20050;-67
2023/09/08 04:06:53;;;;;;;16.70;9.60;;;16.70;99.90;;;;;;5005742;28;20483;-67
2023/09/08 04:09:19;;;;;;;15.55;10.15;;;16.70;99.90;;;;;;4963279;28;20049;-67
2023/09/08 04:11:45;;;;;;;16.27;10.50;;;16.70;99.90;;;;;;5002507;28;20057;-68
2023/09/08 04:14:11;;;;;;;15.50;9.98;;;16.60;99.90;;;;;;4943034;28;20074;-67
2023/09/08 04:16:37;;;;;;;18.58;10.57;;;16.70;99.90;;;;;;5000185;28;20053;-67
2023/09/08 04:19:03;;;;;;;16.67;10.63;;;16.70;99.90;;;;;;4965863;28;20054;-67
2023/09/08 04:21:29;;;;;;;14.50;10.40;;;16.70;99.90;;;;;;5005853;28;20113;-67
2023/09/08 04:23:56;;;;;;;14.23;10.23;;;16.70;99.90;;;;;;4973715;28;20131;-67
2023/09/08 04:26:22;;;;;;;16.42;10.82;;;16.60;99.90;;;;;;5002014;28;20491;-67
2023/09/08 04:28:48;;;;;;;14.30;10.25;;;16.60;99.90;;;;;;4963770;28;20046;-67
2023/09/08 04:31:14;;;;;;;15.82;9.57;;;16.60;99.90;;;;;;5000157;28;20053;-68
2023/09/08 04:33:40;;;;;;;16.27;11.38;;;16.60;99.90;;;;;;4971221;28;20430;-67
2023/09/08 04:36:06;;;;;;;18.40;10.60;;;16.60;99.90;;;;;;5009264;28;20053;-68
2023/09/08 04:38:32;;;;;;;18.40;10.50;;;16.60;99.90;;;;;;4965540;28;20180;-66
2023/09/08 04:40:58;;;;;;;15.10;10.52;;;16.60;99.90;;;;;;4990337;28;20054;-67
2023/09/08 04:43:24;;;;;;;14.88;11.10;;;16.50;99.90;;;;;;4949014;28;20050;-69
2023/09/08 04:45:50;;;;;;;13.55;10.35;;;16.50;99.90;;;;;;4987346;28;20065;-69
2023/09/08 04:48:17;;;;;;;13.95;9.02;;;16.50;99.90;;;;;;4948239;28;20046;-66
2023/09/08 04:50:43;;;;;;;16.45;10.55;;;16.50;99.90;;;;;;4995883;28;20047;-67
2023/09/08 04:53:09;;;;;;;18.25;11.27;;;16.50;99.90;;;;;;4957075;28;51408;-68
2023/09/08 04:55:35;;;;;;;14.43;10.40;;;16.50;99.90;;;;;;5005192;28;20047;-66
2023/09/08 04:58:01;;;;;;;16.98;10.60;;;16.50;99.90;;;;;;4964487;28;20046;-68
2023/09/08 05:00:27;;;;;;;14.65;10.85;;;16.40;99.90;;;;;;4993916;28;20419;-68
2023/09/08 05:02:53;;;;;;;17.38;10.57;;;16.40;99.90;;;;;;4946105;28;20057;-66
2023/09/08 05:05:19;;;;;;;17.52;10.57;;;16.50;99.90;;;;;;5003472;28;20058;-68
2023/09/08 05:07:46;;;;;;;19.83;10.63;;;16.50;99.90;;;;;;4943919;28;20993;-67
2023/09/08 05:10:12;;;;;;;16.77;10.90;;;16.40;99.90;;;;;;5000690;28;20066;-67
2023/09/08 05:12:38;;;;;;;16.08;10.60;;;16.50;99.90;;;;;;4960779;28;20043;-68
2023/09/08 05:15:14;;;;;;;15.85;10.27;;;16.50;99.90;;;;;;4996485;28;20487;-67
2023/09/08 05:17:40;;;;;;;17.60;10.75;;;16.50;99.90;;;;;;4944678;28;20047;-66
2023/09/08 05:20:07;;;;;;;17.08;11.20;;;16.50;99.90;;;;;;4992867;28;20054;-68
2023/09/08 05:22:33;;;;;;;13.02;10.40;;;16.50;99.90;;;;;;4945778;28;20661;-67
2023/09/08 05:24:59;;;;;;;17.30;11.30;;;16.50;99.90;;;;;;4974377;28;20050;-66
2023/09/08 05:27:25;;;;;;;15.07;10.32;;;16.60;99.90;;;;;;4973272;28;20583;-68
2023/09/08 05:29:51;;;;;;;15.02;11.18;;;16.60;99.90;;;;;;4936576;28;20042;-67
2023/09/08 05:32:17;;;;;;;16.60;10.38;;;16.60;99.90;;;;;;4981855;28;20062;-66
2023/09/08 05:34:44;;;;;;;16.67;10.60;;;16.70;99.90;;;;;;4942126;28;20062;-66
2023/09/08 05:37:10;;;;;;;17.67;10.43;;;16.70;99.90;;;;;;4981404;28;20061;-68
2023/09/08 05:39:36;;;;;;;14.82;10.80;;;16.80;99.90;;;;;;4965031;28;20041;-68
2023/09/08 05:42:02;;;;;;;19.17;10.20;;;17.00;99.90;;;;;;4988305;28;20065;-67
2023/09/08 05:44:28;;;;;;;14.43;9.75;;;17.40;99.90;;;;;;4968237;28;20565;-68
2023/09/08 05:46:54;;;;;;;13.65;9.40;;;18.00;99.90;;;;;;4986589;28;20050;-66
2023/09/08 05:49:20;;;;;;;19.85;9.65;;;18.50;99.90;;;;;;4960716;28;20416;-68
2023/09/08 05:51:47;;;;;;;15.73;8.85;;;18.90;99.90;;;;;;5006134;28;20050;-67
2023/09/08 05:54:13;;;;;;;14.00;8.90;;;19.30;99.90;;;;;;4969598;28;37947;-68
2023/09/08 05:56:39;;;;;;;12.90;8.63;;;19.70;99.90;;;;;;5006766;28;20054;-66
2023/09/08 05:59:05;;;;;;;13.13;8.07;;;20.00;99.90;;;;;;4968421;28;20053;-66
2023/09/08 06:01:32;;;;;;;16.20;8.75;;;20.40;99.90;;;;;;5004695;28;20065;-66
2023/09/08 06:03:58;;;;;;;12.52;8.27;;;20.70;99.90;;;;;;4948901;28;20077;-66
2023/09/08 06:06:28;;;;;;;16.65;8.35;;;21.00;99.90;;;;;;4992170;28;20046;-68
2023/09/08 06:08:54;;;;;;;15.13;8.77;;;21.30;99.90;;;;;;4941884;28;20050;-66
2023/09/08 06:11:20;;;;;;;12.75;7.75;;;21.60;99.90;;;;;;4981736;28;20061;-68
2023/09/08 06:13:47;;;;;;;12.05;7.20;;;21.90;99.90;;;;;;4953760;28;20577;-68
2023/09/08 06:16:13;;;;;;;14.40;7.65;;;22.20;99.90;;;;;;4980396;28;20062;-67
2023/09/08 06:18:43;;;;;;;14.10;7.07;;;22.50;99.90;;;;;;4947288;28;20042;-66
2023/09/08 06:21:09;;;;;;;12.82;7.30;;;22.70;99.90;;;;;;4985284;28;20042;-68
2023/09/08 06:23:36;;;;;;;12.40;6.85;;;23.00;99.90;;;;;;4945418;28;20050;-66
2023/09/08 06:26:02;;;;;;;11.75;7.18;;;23.10;99.80;;;;;;4980235;28;20515;-67
2023/09/08 06:28:28;;;;;;;11.27;6.78;;;23.30;99.70;;;;;;4945410;28;20097;-67
2023/09/08 06:30:54;;;;;;;11.43;6.28;;;23.60;99.50;;;;;;4990445;28;20065;-68
2023/09/08 06:33:22;;;;;;;13.88;6.90;;;23.80;99.20;;;;;;4949021;28;20057;-69
2023/09/08 06:35:48;;;;;;;12.57;6.57;;;24.10;99.10;;;;;;4986845;28;20424;-67
2023/09/08 06:38:14;;;;;;;10.93;6.47;;;24.30;98.60;;;;;;4950354;28;20108;-66
2023/09/08 06:40:40;;;;;;;10.98;6.03;;;24.60;98.40;;;;;;4995989;28;20058;-67
2023/09/08 06:43:07;;;;;;;9.95;6.13;;;24.80;98.00;;;;;;4962251;28;20149;-66
2023/09/08 06:45:33;;;;;;;14.68;5.95;;;25.10;97.60;;;;;;4999137;28;20434;-68
2023/09/08 06:48:00;;;;;;;10.57;5.60;;;25.20;97.30;;;;;;4963583;28;20053;-67
2023/09/08 06:50:26;;;;;;;13.18;5.82;;;25.40;97.20;;;;;;4989890;28;20073;-68
2023/09/08 06:52:52;;;;;;;11.75;5.90;;;25.60;96.80;;;;;;4943084;28;44688;-69
2023/09/08 06:55:19;;;;;;;10.80;5.25;;;25.80;96.60;;;;;;4997506;28;20595;-67
2023/09/08 06:57:46;;;;;;;12.18;5.22;;;25.90;96.20;;;;;;4959981;28;20054;-68
2023/09/08 07:00:13;;;;;;;10.07;5.55;;;26.20;96.10;;;;;;4980632;28;20054;-68
2023/09/08 07:02:40;;;;;;;15.70;5.90;;;26.40;95.80;;;;;;4944817;28;20058;-67
2023/09/08 07:05:08;;;;;;;11.07;5.40;;;26.60;95.50;;;;;;4995991;28;20050;-68
2023/09/08 07:07:35;;;;;;;9.77;4.60;;;26.80;95.30;;;;;;4962199;28;20065;-68
2023/09/08 07:10:05;;;;;;;9.95;4.90;;;27.10;94.90;;;;;;4982451;28;20061;-67
2023/09/08 07:12:31;;;;;;;9.77;4.90;;;27.20;94.30;;;;;;4944759;28;20431;-68
2023/09/08 07:14:57;;;;;;;11.20;4.60;;;27.30;94.50;;;;;;4990552;28;20050;-69
2023/09/08 07:17:23;;;;;;;10.38;4.40;;;27.60;94.40;;;;;;4979971;28;20411;-68
2023/09/08 07:19:50;;;;;;;9.60;4.78;;;27.80;94.10;;;;;;4944225;28;20057;-68
2023/09/08 07:22:16;;;;;;;11.43;4.50;;;28.00;93.60;;;;;;4985486;28;20062;-68
2023/09/08 07:24:42;;;;;;;13.18;5.07;;;28.10;93.50;;;;;;4964719;28;20057;-68
2023/09/08 07:27:08;;;;;;;9.65;4.70;;;28.40;93.20;;;;;;5002567;28;20053;-69
2023/09/08 07:29:35;;;;;;;9.73;4.70;;;28.60;92.80;;;;;;4958128;28;20061;-69
2023/09/08 07:32:01;;;;;;;9.52;4.22;;;28.70;92.50;;;;;;5000127;28;20050;-69
2023/09/08 07:34:27;;;;;;;9.13;4.50;;;28.90;92.30;;;;;;4978202;28;20053;-68
2023/09/08 07:36:53;;;;;;;9.13;4.43;;;29.20;92.00;;;;;;5004813;28;20430;-69
2023/09/08 07:39:19;;;;;;;9.18;4.18;;;29.10;91.70;;;;;;4971105;28;20060;-68
2023/09/08 07:41:45;;;;;;;11.38;4.75;;;29.30;91.60;;;;;;5004856;28;20083;-68
2023/09/08 07:44:13;;;;;;;10.02;4.50;;;29.60;91.60;;;;;;4964437;28;20053;-69
2023/09/08 07:46:39;;;;;;;11.00;4.70;;;29.80;91.50;;;;;;5002677;28;20073;-68
2023/09/08 07:49:05;;;;;;;11.85;4.22;;;29.90;90.90;;;;;;4975276;28;20061;-68
2023/09/08 07:51:31;;;;;;;10.88;3.83;;;29.80;90.40;;;;;;5006930;28;20053;-68
2023/09/08 07:53:57;;;;;;;9.38;4.40;;;29.90;90.70;;;;;;4955593;28;179837;-68
2023/09/08 07:56:23;;;;;;;11.25;4.30;;;30.00;90.30;;;;;;5006685;28;20062;-69
2023/09/08 07:58:50;;;;;;;10.98;4.28;;;30.20;89.50;;;;;;4945211;28;109070;-68
2023/09/08 08:01:16;;;;;;;12.13;4.10;;;30.10;88.80;;;;;;4996578;28;20054;-69
2023/09/08 08:03:42;;;;;;;9.02;3.90;;;30.00;90.00;;;;;;4949937;28;98114;-68
2023/09/08 08:06:08;;;;;;;10.23;4.10;;;30.30;90.00;;;;;;4984267;28;20146;-69
2023/09/08 08:08:38;;;;;;;9.43;4.15;;;30.30;89.20;;;;;;4943112;28;243159;-69
2023/09/08 08:11:15;;;;;;;10.52;4.10;;;30.30;88.30;;;;;;4988122;28;20056;-69
2023/09/08 08:13:41;;;;;;;9.13;3.88;;;30.20;87.20;;;;;;4954624;28;67851;-68
2023/09/08 08:16:07;;;;;;;11.25;3.90;;;30.50;88.70;;;;;;4986869;28;20416;-69
2023/09/08 08:18:33;;;;;;;9.38;3.80;;;31.00;88.60;;;;;;4960128;28;165501;-67
2023/09/08 08:21:03;;;;;;;10.07;4.10;;;31.20;87.20;;;;;;5008051;28;20435;-69
2023/09/08 08:23:30;;;;;;;9.05;3.88;;;31.40;87.60;;;;;;4963013;28;20065;-68
2023/09/08 08:25:57;;;;;;;9.32;4.03;;;31.40;86.60;;;;;;4996239;28;20043;-68
2023/09/08 08:28:24;;;;;;;7.85;3.53;;;31.60;86.20;;;;;;4948639;28;20038;-69
2023/09/08 08:30:51;;;;;;;10.85;3.95;;;31.90;86.80;;;;;;4979137;28;20339;-69
2023/09/08 08:33:17;;;;;;;11.38;4.05;;;32.30;85.10;;;;;;4953771;28;20629;-69
2023/09/08 08:35:50;;;;;;;8.63;3.55;;;32.50;85.80;;;;;;4988132;28;20054;-68
2023/09/08 08:38:17;;;;;;;10.90;3.88;;;32.80;83.80;;;;;;4948988;28;20129;-69
2023/09/08 08:40:43;;;;;;;9.88;3.85;;;32.70;82.50;;;;;;4991504;28;20053;-69
2023/09/08 08:43:09;;;;;;;9.35;3.75;;;32.20;82.50;;;;;;4952338;28;20065;-69
2023/09/08 08:45:38;;;;;;;9.65;3.63;;;31.70;81.90;;;;;;4993560;28;20050;-70
2023/09/08 08:48:05;;;;;;;12.40;3.80;;;31.40;81.00;;;;;;4945736;28;20542;-69
2023/09/08 08:50:32;;;;;;;7.85;3.92;;;31.20;83.10;;;;;;4990378;28;20061;-68
2023/09/08 08:52:59;;;;;;;9.57;3.80;;;31.30;81.60;;;;;;4931562;28;99251;-68
2023/09/08 08:55:26;;;;;;;13.00;4.00;;;31.00;82.80;;;;;;4977439;28;20054;-69
2023/09/08 08:57:53;;;;;;;14.02;3.78;;;31.50;82.70;;;;;;4947984;28;20054;-69
2023/09/08 09:00:19;;;;;;;9.80;3.50;;;31.90;82.60;;;;;;4998577;28;20054;-69
2023/09/08 09:02:48;;;;;;;9.00;3.80;;;32.40;82.10;;;;;;4969642;28;20085;-69
2023/09/08 09:05:15;;;;;;;10.45;3.95;;;32.60;79.70;;;;;;4983666;28;20057;-69
2023/09/08 09:07:44;;;;;;;11.52;3.80;;;32.90;80.90;;;;;;4945026;28;20046;-68
2023/09/08 09:10:10;;;;;;;9.30;3.63;;;32.90;79.00;;;;;;4965298;28;20050;-70
2023/09/08 09:12:40;;;;;;;11.25;3.80;;;33.00;81.60;;;;;;4945036;28;20301;-70
2023/09/08 09:15:07;;;;;;;12.43;4.00;;;32.90;79.90;;;;;;4984343;28;20045;-70
2023/09/08 09:17:34;;;;;;;10.30;3.85;;;33.10;80.10;;;;;;4951325;28;20101;-68
2023/09/08 09:20:17;;;;;;;10.27;4.20;;;33.30;80.00;;;;;;4997319;28;20054;-69
2023/09/08 09:22:44;;;;;;;9.93;4.28;;;33.30;79.70;;;;;;4953920;28;20085;-69
2023/09/08 09:25:22;;;;;;;9.50;4.38;;;33.70;79.60;;;;;;4985532;28;20058;-69
2023/09/08 09:27:59;;;;;;;9.48;4.50;;;34.00;78.50;;;;;;4948429;28;20042;-70
2023/09/08 09:30:26;;;;;;;11.70;5.30;;;34.30;79.80;;;;;;4990095;28;20058;-70
2023/09/08 09:33:00;;;;;;;11.07;5.10;;;34.80;78.60;;;;;;4944302;28;20064;-69
2023/09/08 09:35:44;;;;;;;13.38;5.32;;;35.00;78.60;;;;;;4999487;28;20054;-69
2023/09/08 09:38:11;;;;;;;12.82;6.00;;;35.30;77.00;;;;;;4970615;28;20112;-71
2023/09/08 09:40:37;;;;;;;12.32;5.40;;;35.20;76.30;;;;;;5004265;28;20050;-70
2023/09/08 09:43:05;;;;;;;10.98;4.53;;;35.50;76.40;;;;;;4968185;28;20647;-71
2023/09/08 09:45:36;;;;;;;10.05;4.40;;;36.00;76.40;;;;;;5010671;28;20495;-71
2023/09/08 09:48:05;;;;;;;10.20;4.05;;;36.50;75.50;;;;;;4974783;28;20053;-71
2023/09/08 09:50:34;;;;;;;9.15;3.50;;;36.40;73.90;;;;;;4999864;28;20061;-70
2023/09/08 09:53:01;;;;;;;10.10;3.88;;;36.30;74.70;;;;;;4954683;28;222464;-70
2023/09/08 09:55:28;;;;;;;9.48;3.70;;;36.70;75.40;;;;;;4988351;28;20431;-70
2023/09/08 09:58:00;;;;;;;9.68;3.70;;;37.10;74.10;;;;;;4972032;28;20541;-71
2023/09/08 10:00:28;;;;;;;9.95;3.60;;;37.00;74.00;;;;;;5020658;28;20064;-71
2023/09/08 10:02:55;;;;;;;7.53;3.50;;;37.10;73.00;;;;;;4975622;28;20853;-70
2023/09/08 10:05:21;;;;;;;9.57;3.40;;;36.90;72.90;;;;;;5012837;28;20073;-70
2023/09/08 10:07:48;;;;;;;9.00;3.90;;;36.90;73.30;;;;;;4972816;28;20046;-71
2023/09/08 10:10:15;;;;;;;8.77;3.60;;;36.90;72.60;;;;;;5015650;28;20058;-71
2023/09/08 10:12:47;;;;;;;7.72;3.58;;;36.40;72.00;;;;;;4962465;28;20054;-70
2023/09/08 10:15:18;;;;;;;9.25;3.65;;;36.00;73.10;;;;;;4985263;28;20094;-70
2023/09/08 10:17:46;;;;;;;8.32;3.53;;;36.40;73.30;;;;;;4946769;28;20054;-70
2023/09/08 10:20:15;;;;;;;8.00;3.30;;;36.70;73.40;;;;;;4987557;28;20054;-70
2023/09/08 10:22:42;;;;;;;10.80;3.50;;;37.30;73.10;;;;;;4966612;28;20053;-70
2023/09/08 10:25:12;;;;;;;9.30;3.65;;;37.50;72.10;;;;;;4983542;28;20129;-71
2023/09/08 10:27:39;;;;;;;9.40;3.60;;;37.80;73.40;;;;;;4969002;28;20061;-71
2023/09/08 10:30:06;;;;;;;9.82;3.55;;;37.90;71.30;;;;;;4990141;28;20049;-71
2023/09/08 10:32:35;;;;;;;9.70;3.60;;;37.40;71.80;;;;;;4963757;28;20062;-72
2023/09/08 10:35:06;;;;;;;9.45;3.38;;;37.20;71.60;;;;;;5013603;28;20062;-70
2023/09/08 10:37:32;;;;;;;9.55;3.60;;;37.60;73.10;;;;;;4962139;28;20069;-71
2023/09/08 10:40:20;;;;;;;10.82;3.60;;;38.00;71.90;;;;;;4984398;28;20054;-70
2023/09/08 10:42:47;;;;;;;9.15;3.30;;;38.30;72.50;;;;;;4947143;28;20054;-71
2023/09/08 10:45:20;;;;;;;9.07;3.72;;;38.70;72.40;;;;;;4950705;28;20054;-71
2023/09/08 10:47:46;;;;;;;9.60;3.30;;;38.90;71.30;;;;;;4946190;28;20069;-70
2023/09/08 10:50:25;;;;;;;9.73;3.38;;;38.80;71.50;;;;;;4992356;28;20046;-70
2023/09/08 10:53:16;;;;;;;10.27;3.30;;;39.00;71.80;;;;;;4956378;28;201744;-72
2023/09/08 10:55:47;;;;;;;13.63;11.93;;;39.20;70.20;;;;;;5002514;28;20073;-71
2023/09/08 10:58:43;;;;;;;8.95;3.45;;;39.20;70.90;;;;;;4965269;28;20050;-72
2023/09/08 11:01:18;;;;;;;10.45;3.40;;;38.90;68.90;;;;;;5002807;28;20061;-72
2023/09/08 11:03:47;;;;;;;10.55;3.55;;;38.60;70.60;;;;;;4959591;28;68247;-72
2023/09/08 11:06:15;;;;;;;;;;;38.90;70.70;;;;;;5005378;28;20065;-71
2023/09/08 11:08:42;;;;;;;10.80;3.42;;;38.90;69.50;;;;;;4965264;28;35682;-71
2023/09/08 11:11:16;;;;;;;7.75;3.40;;;38.90;70.60;;;;;;4995546;28;20057;-70
2023/09/08 11:13:45;;;;;;;10.63;3.03;;;39.40;69.40;;;;;;4961356;28;122168;-70
2023/09/08 11:16:12;;;;;;;9.07;3.10;;;39.00;69.30;;;;;;5004695;28;20057;-71
2023/09/08 11:18:39;;;;;;;9.85;2.92;;;39.20;70.00;;;;;;4959708;28;49620;-71
2023/09/08 11:21:08;;;;;;;9.82;3.22;;;39.40;70.10;;;;;;4984962;28;20062;-72
2023/09/08 11:23:35;;;;;;;9.05;3.13;;;39.10;67.50;;;;;;4946918;28;99342;-71
2023/09/08 11:26:01;;;;;;;9.73;3.28;;;38.90;67.50;;;;;;4994423;28;20523;-71
2023/09/08 11:28:30;;;;;;;8.00;3.10;;;38.50;67.70;;;;;;4945151;28;187086;-71
2023/09/08 11:30:57;;;;;;;10.50;3.55;;;38.40;67.90;;;;;;4988916;28;20519;-73
2023/09/08 11:33:24;;;;;;;8.05;3.28;;;38.80;68.50;;;;;;4939000;28;65435;-70
2023/09/08 11:35:54;;;;;;;9.70;2.92;;;39.30;68.50;;;;;;4989219;28;20058;-71
2023/09/08 11:38:27;;;;;;;10.15;3.17;;;39.50;68.50;;;;;;4938976;28;197910;-71
2023/09/08 11:40:57;;;;;;;8.75;3.30;;;39.80;65.90;;;;;;4986107;28;20073;-71
2023/09/08 11:43:23;;;;;;;11.88;3.20;;;39.40;66.30;;;;;;4953979;28;221538;-70
2023/09/08 11:45:49;;;;;;;7.40;2.90;;;38.80;64.70;;;;;;5012205;28;20417;-68
2023/09/08 11:48:16;;;;;;;9.90;3.30;;;38.20;65.10;;;;;;4946511;28;220053;-69
2023/09/08 11:50:43;;;;;;;10.63;3.10;;;37.70;64.20;;;;;;4982005;28;20065;-70
2023/09/08 11:53:10;;;;;;;8.00;3.03;;;37.20;65.70;;;;;;4930847;28;157785;-71
2023/09/08 11:55:39;;;;;;;11.82;3.05;;;36.80;66.10;;;;;;4990022;28;20059;-70
2023/09/08 11:58:06;;;;;;;9.23;3.05;;;36.90;66.30;;;;;;4945907;28;111467;-70
2023/09/08 12:00:32;;;;;;;10.55;3.40;;;37.30;65.80;;;;;;5012325;28;20062;-71
2023/09/08 12:03:12;;;;;;;11.25;3.00;;;37.40;64.70;;;;;;4961425;28;133268;-72
2023/09/08 12:05:39;;;;;;;9.25;2.95;;;37.40;64.30;;;;;;5006820;28;20586;-72
2023/09/08 12:08:05;;;;;;;8.50;3.10;;;37.60;66.40;;;;;;4960781;28;247956;-75
2023/09/08 12:10:39;;;;;;;8.07;2.97;;;38.10;65.30;;;;;;5010695;28;20073;-71
2023/09/08 12:13:05;;;;;;;10.82;3.30;;;38.40;65.00;;;;;;4955624;28;176539;-71
2023/09/08 12:15:34;;;;;;;8.02;2.90;;;38.80;64.80;;;;;;4982896;28;20431;-71
2023/09/08 12:18:03;;;;;;;9.40;3.05;;;39.00;63.80;;;;;;4964405;28;148649;-72
2023/09/08 12:20:29;;;;;;;8.52;2.72;;;39.30;63.70;;;;;;4994362;28;20059;-72
2023/09/08 12:22:59;;;;;;;8.02;2.83;;;38.70;61.60;;;;;;4962782;28;66020;-72
2023/09/08 12:25:27;;;;;;;11.32;3.25;;;38.30;62.00;;;;;;4987065;28;20062;-72
2023/09/08 12:27:54;;;;;;;9.90;3.08;;;38.00;64.20;;;;;;4957277;28;135988;-72
2023/09/08 12:30:29;;;;;;;8.32;2.72;;;38.10;62.70;;;;;;4987569;28;20058;-70
2023/09/08 12:33:00;;;;;;;7.78;3.03;;;38.10;64.40;;;;;;4960361;28;175834;-72
2023/09/08 12:35:27;;;;;;;7.60;2.92;;;38.60;64.20;;;;;;5008198;28;20058;-71
2023/09/08 12:37:59;;;;;;;10.73;3.00;;;39.10;63.80;;;;;;4945524;28;253847;-71
2023/09/08 12:40:26;;;;;;;8.05;3.05;;;39.60;63.30;;;;;;4982229;28;20054;-72